Time;durP1;ratioP1;P1;durP2;ratioP2;P2;SDS_P1;SDS_P2;PMS_P1;PMS_P2;Temp;Humidity;BMP_temperature;BMP_pressure;BME280_temperature;BME280_humidity;BME280_pressure;Samples;Min_cycle;Max_cycle;Signal;HPM_P1;HPM_P2
2021/08/02 00:00:13;;;;;;;5.20;2.40;;;;;;;14.84;66.06;99523.81;10370083;28;20140;-59
2021/08/02 00:05:17;;;;;;;4.00;2.20;;;;;;;14.87;65.57;99523.53;10370021;28;20495;-59
2021/08/02 00:10:19;;;;;;;4.60;2.38;;;;;;;14.93;65.40;99520.38;10368396;28;20049;-59
2021/08/02 00:15:21;;;;;;;4.32;2.53;;;;;;;14.96;65.14;99515.69;10358006;28;20141;-59
2021/08/02 00:20:29;;;;;;;5.18;2.67;;;;;;;14.87;65.64;99515.63;10368817;28;20082;-59
2021/08/02 00:25:31;;;;;;;3.53;2.67;;;;;;;14.72;65.88;99522.16;10359377;28;20054;-59
2021/08/02 00:30:34;;;;;;;4.57;2.47;;;;;;;14.81;65.43;99524.06;10362731;28;20137;-59
2021/08/02 00:36:01;;;;;;;4.70;2.58;;;;;;;14.76;65.66;99523.63;10367798;28;20050;-60
2021/08/02 00:41:12;;;;;;;4.55;2.47;;;;;;;14.84;65.23;99527.25;10366536;28;20145;-59
2021/08/02 00:46:16;;;;;;;8.95;2.83;;;;;;;14.90;65.17;99528.56;10368194;28;20133;-59
2021/08/02 00:51:18;;;;;;;6.72;2.70;;;;;;;14.87;65.05;99529.66;10366781;28;20058;-59
2021/08/02 00:56:20;;;;;;;3.95;2.50;;;;;;;14.93;65.00;99530.91;10367686;28;20137;-59
2021/08/02 01:01:24;;;;;;;5.80;2.88;;;;;;;15.06;64.87;99528.94;10361310;28;20499;-59
2021/08/02 01:06:28;;;;;;;6.65;2.70;;;;;;;15.16;64.38;99535.09;10356218;28;20049;-59
2021/08/02 01:11:33;;;;;;;4.95;2.60;;;;;;;15.17;64.45;99539.38;10367076;28;20486;-59
2021/08/02 01:16:37;;;;;;;5.47;2.40;;;;;;;15.15;64.12;99533.41;10366052;28;20053;-59
2021/08/02 01:21:43;;;;;;;4.43;2.35;;;;;;;14.95;64.32;99532.47;10355918;28;20058;-59
2021/08/02 01:26:44;;;;;;;4.85;2.15;;;;;;;14.96;64.37;99549.94;10366653;28;20475;-59
2021/08/02 01:31:46;;;;;;;4.45;2.33;;;;;;;14.82;64.65;99539.72;10367289;28;20085;-59
2021/08/02 01:36:48;;;;;;;7.65;2.40;;;;;;;14.87;64.55;99540.19;10365915;28;20241;-59
2021/08/02 01:41:50;;;;;;;8.55;2.30;;;;;;;14.79;64.75;99547.03;10366179;28;20676;-59
2021/08/02 01:47:18;;;;;;;6.95;2.50;;;;;;;14.83;64.85;99553.72;10353437;28;20129;-59
2021/08/02 01:52:27;;;;;;;7.93;2.65;;;;;;;14.80;64.70;99554.78;10330940;28;20044;-59
2021/08/02 01:57:34;;;;;;;5.97;2.75;;;;;;;14.83;64.86;99553.72;10365723;28;20137;-59
2021/08/02 02:02:38;;;;;;;4.95;2.50;;;;;;;14.77;64.98;99567.38;10367719;28;20053;-59
2021/08/02 02:07:49;;;;;;;4.55;2.67;;;;;;;14.80;65.13;99564.53;10371355;28;20061;-59
2021/08/02 02:12:53;;;;;;;4.13;2.40;;;;;;;14.77;65.16;99564.75;10353894;28;20073;-59
2021/08/02 02:17:55;;;;;;;6.45;2.58;;;;;;;14.82;64.82;99562.59;10370237;28;20148;-59
2021/08/02 02:22:57;;;;;;;5.47;2.47;;;;;;;14.85;64.58;99568.44;10371453;28;20092;-59
2021/08/02 02:27:59;;;;;;;4.20;2.42;;;;;;;15.03;64.17;99561.63;10369946;28;20106;-59
2021/08/02 02:33:02;;;;;;;5.68;2.60;;;;;;;15.21;63.87;99552.16;10371442;28;20140;-59
2021/08/02 02:38:04;;;;;;;5.45;2.47;;;;;;;15.34;63.46;99560.72;10370215;28;20057;-59
2021/08/02 02:43:07;;;;;;;4.40;2.60;;;;;;;15.40;63.51;99557.56;10368766;28;20078;-59
2021/08/02 02:48:10;;;;;;;6.00;2.53;;;;;;;15.49;63.24;99557.75;10370095;28;20073;-59
2021/08/02 02:53:14;;;;;;;6.60;2.47;;;;;;;15.54;63.05;99558.19;10370160;28;20468;-59
2021/08/02 02:58:16;;;;;;;5.00;2.67;;;;;;;15.45;63.13;99559.78;10368557;28;20081;-59
2021/08/02 03:03:22;;;;;;;6.38;2.70;;;;;;;15.22;63.67;99567.03;10367908;28;20503;-59
2021/08/02 03:08:26;;;;;;;6.43;2.50;;;;;;;15.10;63.81;99564.59;10364541;28;20120;-59
2021/08/02 03:13:28;;;;;;;6.18;2.90;;;;;;;14.96;64.08;99568.34;10363252;28;20468;-59
2021/08/02 03:18:29;;;;;;;5.13;2.90;;;;;;;14.93;64.30;99573.06;10362279;28;20246;-59
2021/08/02 03:23:58;;;;;;;4.22;2.53;;;;;;;14.98;64.41;99563.00;10358065;28;20133;-59
2021/08/02 03:29:08;;;;;;;6.10;2.53;;;;;;;14.98;64.14;99573.50;10329525;28;20144;-60
2021/08/02 03:34:16;;;;;;;7.13;2.80;;;;;;;15.07;64.11;99580.63;10362615;28;20049;-60
2021/08/02 03:39:21;;;;;;;7.82;2.60;;;;;;;15.21;63.82;99580.31;10357939;28;20216;-59
2021/08/02 03:44:25;;;;;;;4.25;2.58;;;;;;;15.24;63.77;99577.44;10354027;28;20159;-59
2021/08/02 03:49:27;;;;;;;6.78;2.50;;;;;;;15.22;63.62;99582.84;10361525;28;20064;-59
2021/08/02 03:54:30;;;;;;;7.07;2.65;;;;;;;15.29;63.48;99577.84;10362435;28;20049;-59
2021/08/02 03:59:33;;;;;;;7.43;2.92;;;;;;;15.27;63.41;99582.41;10361346;28;20840;-59
2021/08/02 04:04:35;;;;;;;6.10;2.90;;;;;;;15.21;63.75;99583.78;10362022;28;20125;-59
2021/08/02 04:09:36;;;;;;;5.82;2.72;;;;;;;15.12;63.60;99592.44;10360566;28;20129;-59
2021/08/02 04:14:38;;;;;;;7.20;3.00;;;;;;;14.90;64.42;99597.03;10361235;28;20418;-59
2021/08/02 04:19:45;;;;;;;8.15;2.85;;;;;;;14.84;64.67;99598.34;10359861;28;20057;-59
2021/08/02 04:24:47;;;;;;;5.35;3.25;;;;;;;14.88;64.55;99598.94;10362942;28;20132;-59
2021/08/02 04:29:48;;;;;;;6.45;2.90;;;;;;;14.97;64.44;99603.44;10359573;28;20189;-59
2021/08/02 04:34:50;;;;;;;10.52;3.28;;;;;;;15.07;64.06;99604.34;10368998;28;20050;-59
2021/08/02 04:39:54;;;;;;;6.78;2.65;;;;;;;15.12;64.01;99610.06;10367118;28;20054;-59
2021/08/02 04:44:56;;;;;;;6.10;3.10;;;;;;;15.28;63.60;99603.41;10368789;28;20132;-59
2021/08/02 04:49:58;;;;;;;5.40;2.92;;;;;;;15.40;63.56;99605.00;10367481;28;20124;-59
2021/08/02 04:54:59;;;;;;;9.05;2.90;;;;;;;15.46;63.43;99616.81;10367915;28;20042;-59
2021/08/02 05:00:02;;;;;;;5.75;2.80;;;;;;;15.52;63.33;99613.69;10366611;28;20149;-59
2021/08/02 05:05:04;;;;;;;6.55;2.70;;;;;;;15.59;63.08;99612.19;10367642;28;20045;-59
2021/08/02 05:10:07;;;;;;;4.47;2.70;;;;;;;15.66;62.90;99615.13;10366733;28;20486;-59
2021/08/02 05:15:12;;;;;;;11.20;3.47;;;;;;;15.93;62.83;99618.88;10366771;28;20138;-59
2021/08/02 05:20:13;;;;;;;5.05;3.00;;;;;;;17.41;59.64;99610.72;10366374;28;20050;-59
2021/08/02 05:25:15;;;;;;;4.45;2.42;;;;;;;18.19;57.20;99609.47;10381634;28;20742;-59
2021/08/02 05:30:18;;;;;;;8.07;2.70;;;;;;;17.96;57.43;99601.06;10349923;28;20473;-59
2021/08/02 05:35:19;;;;;;;5.57;2.28;;;;;;;17.94;57.30;99603.03;10364272;28;20129;-59
2021/08/02 05:40:22;;;;;;;5.00;2.17;;;;;;;18.10;56.68;99605.88;10364781;28;20081;-59
2021/08/02 05:45:24;;;;;;;5.90;2.50;;;;;;;18.06;57.07;99615.09;10366029;28;20053;-59
2021/08/02 05:50:25;;;;;;;8.40;2.55;;;;;;;17.68;57.17;99618.72;10365487;28;20046;-60
2021/08/02 05:55:27;;;;;;;5.97;2.60;;;;;;;17.30;57.86;99616.13;10365405;28;20056;-59
2021/08/02 06:00:29;;;;;;;7.50;2.90;;;;;;;17.42;57.76;99620.34;10359705;28;20045;-59
2021/08/02 06:05:30;;;;;;;5.43;2.65;;;;;;;17.36;57.70;99620.91;10364478;28;20150;-59
2021/08/02 06:10:32;;;;;;;5.40;2.55;;;;;;;17.52;57.41;99620.31;10364727;28;20210;-59
2021/08/02 06:15:34;;;;;;;6.20;2.80;;;;;;;17.61;57.11;99616.78;10363345;28;20048;-59
2021/08/02 06:20:36;;;;;;;5.07;2.45;;;;;;;17.51;57.52;99635.34;10380387;28;20053;-59
2021/08/02 06:25:37;;;;;;;8.10;2.72;;;;;;;17.56;57.28;99625.19;10352752;28;20045;-59
2021/08/02 06:30:39;;;;;;;7.88;2.58;;;;;;;17.73;57.17;99629.69;10357345;28;20410;-59
2021/08/02 06:35:41;;;;;;;5.57;2.40;;;;;;;17.76;57.10;99632.06;10343743;28;20488;-59
2021/08/02 06:40:44;;;;;;;3.95;2.55;;;;;;;17.92;56.76;99633.25;10326407;28;20575;-59
2021/08/02 06:45:45;;;;;;;4.88;2.50;;;;;;;18.21;56.47;99634.00;10344767;28;20125;-59
2021/08/02 06:50:48;;;;;;;6.22;2.40;;;;;;;18.91;54.71;99633.28;10323746;28;20046;-59
2021/08/02 06:55:50;;;;;;;4.53;2.20;;;;;;;19.57;53.34;99636.31;10336181;28;20141;-59
2021/08/02 07:00:51;;;;;;;4.72;2.40;;;;;;;19.82;52.69;99633.69;10340957;28;20054;-59
2021/08/02 07:05:53;;;;;;;5.60;2.33;;;;;;;20.43;51.14;99633.47;10334699;28;20046;-59
2021/08/02 07:10:55;;;;;;;9.75;2.45;;;;;;;20.72;50.54;99641.03;10340068;28;20078;-59
2021/08/02 07:15:59;;;;;;;5.70;2.53;;;;;;;20.87;49.73;99628.75;10364552;28;20450;-59
2021/08/02 07:21:02;;;;;;;4.45;2.30;;;;;;;21.01;49.48;99633.41;10342391;28;20046;-59
2021/08/02 07:26:04;;;;;;;5.00;2.50;;;;;;;21.35;48.83;99641.28;10324952;28;20076;-59
2021/08/02 07:31:06;;;;;;;6.07;2.50;;;;;;;21.44;48.53;99637.59;10341610;28;20052;-59
2021/08/02 07:36:08;;;;;;;32.38;3.55;;;;;;;21.40;48.45;99641.59;10331940;28;20054;-59
2021/08/02 07:41:10;;;;;;;5.68;2.10;;;;;;;21.50;48.06;99648.41;10355784;28;20474;-59
2021/08/02 07:46:12;;;;;;;4.53;2.10;;;;;;;21.70;46.89;99643.56;10353747;28;20048;-59
2021/08/02 07:51:14;;;;;;;5.55;2.20;;;;;;;21.87;46.62;99637.19;10374097;28;20061;-59
2021/08/02 07:56:16;;;;;;;7.15;2.00;;;;;;;21.72;46.66;99641.56;10362973;28;20140;-59
2021/08/02 08:01:21;;;;;;;3.75;2.03;;;;;;;21.66;46.27;99639.59;10364036;28;20144;-59
2021/08/02 08:06:23;;;;;;;6.60;1.98;;;;;;;21.60;46.43;99641.06;10359735;28;20049;-59
2021/08/02 08:11:25;;;;;;;5.32;2.40;;;;;;;21.68;46.16;99643.72;10382896;28;20512;-59
2021/08/02 08:16:27;;;;;;;3.10;1.90;;;;;;;21.87;45.83;99639.84;10366481;28;20084;-60
2021/08/02 08:21:29;;;;;;;3.53;2.28;;;;;;;22.78;44.97;99640.19;10369563;28;20081;-59
2021/08/02 08:26:31;;;;;;;4.18;2.35;;;;;;;22.57;46.59;99638.94;10362356;28;20050;-59
2021/08/02 08:31:33;;;;;;;5.63;2.20;;;;;;;22.06;46.94;99644.00;10366344;28;20144;-59
2021/08/02 08:36:36;;;;;;;4.07;2.00;;;;;;;21.66;47.82;99642.25;10352347;28;21503;-59
2021/08/02 08:41:37;;;;;;;4.03;2.20;;;;;;;21.41;48.09;99640.63;10370091;28;20053;-59
2021/08/02 08:46:41;;;;;;;5.63;2.00;;;;;;;21.23;48.23;99640.75;10381321;28;20046;-59
2021/08/02 08:51:43;;;;;;;4.15;2.10;;;;;;;21.17;47.96;99648.56;10356478;28;20042;-59
2021/08/02 08:56:45;;;;;;;4.63;1.88;;;;;;;22.91;44.41;99635.09;10364077;28;20486;-59
2021/08/02 09:01:47;;;;;;;3.17;1.70;;;;;;;23.48;41.78;99631.81;10365628;28;20547;-59
2021/08/02 09:06:49;;;;;;;4.20;1.70;;;;;;;23.00;42.18;99628.69;10366335;28;20061;-59
2021/08/02 09:12:04;;;;;;;4.65;1.75;;;;;;;22.67;42.67;99630.72;10366406;28;20128;-59
2021/08/02 09:17:06;;;;;;;8.60;1.95;;;;;;;22.55;43.64;99624.13;10365863;28;20145;-59
2021/08/02 09:22:08;;;;;;;5.20;1.80;;;;;;;22.44;43.60;99627.19;10361632;28;20093;-59
2021/08/02 09:27:09;;;;;;;5.68;2.30;;;;;;;22.38;43.83;99614.56;10363999;28;20490;-59
2021/08/02 09:32:11;;;;;;;4.97;2.00;;;;;;;22.08;44.38;99616.19;10342020;28;20486;-59
2021/08/02 09:37:39;;;;;;;3.75;2.00;;;;;;;21.92;44.33;99611.72;10326574;28;20559;-58
2021/08/02 09:42:52;;;;;;;4.03;1.80;;;;;;;23.09;42.30;99606.28;10326793;28;20685;-59
2021/08/02 09:48:15;;;;;;;6.18;2.00;;;;;;;23.88;40.71;99601.16;10338671;28;20046;-59
2021/08/02 09:53:19;;;;;;;4.95;2.17;;;;;;;24.14;40.36;99596.22;10366307;28;20136;-59
2021/08/02 09:58:21;;;;;;;5.38;1.77;;;;;;;23.85;40.64;99593.53;10365255;28;20513;-59
2021/08/02 10:03:24;;;;;;;4.45;1.90;;;;;;;24.27;39.34;99593.72;10324733;28;20079;-59
2021/08/02 10:08:28;;;;;;;3.63;1.77;;;;;;;24.48;39.35;99592.09;10325413;28;20085;-59
2021/08/02 10:13:33;;;;;;;6.45;2.00;;;;;;;25.04;38.11;99586.72;10329911;28;20550;-59
2021/08/02 10:18:35;;;;;;;3.78;1.70;;;;;;;24.97;37.75;99579.66;10365600;28;20626;-59
2021/08/02 10:23:38;;;;;;;4.03;1.80;;;;;;;24.55;38.84;99583.13;10365014;28;20057;-59
2021/08/02 10:28:51;;;;;;;3.03;1.40;;;;;;;24.00;39.33;99581.00;10365131;28;20554;-59
2021/08/02 10:33:54;;;;;;;3.47;1.58;;;;;;;24.07;39.03;99573.09;10328105;28;20137;-59
2021/08/02 10:38:56;;;;;;;4.65;1.60;;;;;;;24.53;38.01;99571.78;10323948;28;20116;-59
2021/08/02 10:44:11;;;;;;;6.95;1.63;;;;;;;24.62;37.79;99572.50;10324057;28;20498;-59
2021/08/02 10:49:15;;;;;;;6.20;1.50;;;;;;;24.42;38.04;99568.78;10333227;28;20050;-59
2021/08/02 10:54:18;;;;;;;4.30;1.73;;;;;;;23.77;40.87;99582.97;10363653;28;20131;-59
2021/08/02 10:59:21;;;;;;;5.88;2.10;;;;;;;22.76;45.68;99595.00;10364654;28;20056;-59
2021/08/02 11:04:23;;;;;;;8.00;2.00;;;;;;;22.40;47.57;99596.56;10364044;28;20060;-59
2021/08/02 11:09:30;;;;;;;5.63;2.15;;;;;;;22.16;49.83;99592.19;10362631;28;20383;-59
2021/08/02 11:14:32;;;;;;;4.30;1.80;;;;;;;21.82;48.32;99595.09;10364270;28;20076;-59
2021/08/02 11:19:34;;;;;;;3.80;1.83;;;;;;;21.63;48.59;99602.66;10363266;28;20502;-59
2021/08/02 11:24:52;;;;;;;3.05;1.83;;;;;;;21.29;49.40;99604.69;10379246;28;20081;-59
2021/08/02 11:29:55;;;;;;;2.72;1.65;;;;;;;20.81;50.92;99613.47;10363618;28;20128;-59
2021/08/02 11:34:58;;;;;;;3.63;1.73;;;;;;;21.07;50.62;99607.00;10334511;28;20466;-59
2021/08/02 11:40:05;;;;;;;3.58;2.10;;;;;;;21.40;52.21;99607.00;10331430;28;20050;-59
2021/08/02 11:45:07;;;;;;;3.95;1.90;;;;;;;21.43;50.58;99602.22;10331450;28;20050;-59
2021/08/02 11:50:10;;;;;;;3.03;1.70;;;;;;;21.15;50.49;99600.03;10330356;28;20121;-59
2021/08/02 11:55:14;;;;;;;3.67;1.80;;;;;;;21.04;51.11;99601.19;10340652;28;20837;-59
2021/08/02 12:00:18;;;;;;;4.47;1.80;;;;;;;21.29;51.76;99591.38;10369856;28;20073;-59
2021/08/02 12:05:25;;;;;;;3.78;2.20;;;;;;;21.52;50.03;99595.84;10370698;28;20137;-59
2021/08/02 12:10:36;;;;;;;4.38;2.20;;;;;;;21.45;50.53;99594.88;10371284;28;20046;-59
2021/08/02 12:15:59;;;;;;;2.92;1.63;;;;;;;21.55;51.21;99590.22;10370399;28;20048;-59
2021/08/02 12:21:25;;;;;;;2.53;1.75;;;;;;;21.91;52.22;99595.91;10369249;28;20454;-59
2021/08/02 12:26:26;;;;;;;3.28;1.75;;;;;;;22.43;48.59;99591.69;10367435;28;20128;-59
2021/08/02 12:31:28;;;;;;;2.47;1.60;;;;;;;22.70;46.95;99590.34;10368962;28;20137;-59
2021/08/02 12:36:30;;;;;;;3.17;1.77;;;;;;;22.92;46.06;99594.94;10369695;28;20074;-59
2021/08/02 12:41:38;;;;;;;2.63;1.60;;;;;;;23.19;43.56;99601.50;10369706;28;20498;-59
2021/08/02 12:46:58;;;;;;;2.10;1.40;;;;;;;23.35;42.54;99594.19;10378698;28;20038;-59
2021/08/02 12:52:00;;;;;;;4.25;1.63;;;;;;;23.72;43.12;99584.50;10369226;28;20045;-59
2021/08/02 12:57:02;;;;;;;3.13;1.45;;;;;;;23.96;42.00;99589.59;10369292;28;20145;-59
2021/08/02 13:02:04;;;;;;;2.90;1.70;;;;;;;24.33;41.81;99586.78;10367970;28;20050;-59
2021/08/02 13:07:06;;;;;;;3.17;1.60;;;;;;;24.62;39.68;99580.53;10351278;28;20109;-59
2021/08/02 13:12:08;;;;;;;2.17;1.45;;;;;;;24.41;41.35;99578.66;10328009;28;20583;-59
2021/08/02 13:17:10;;;;;;;3.72;1.70;;;;;;;24.24;41.21;99575.41;10327569;28;20129;-59
2021/08/02 13:22:20;;;;;;;2.80;1.60;;;;;;;24.10;40.87;99578.88;10327781;28;20058;-59
2021/08/02 13:27:22;;;;;;;2.13;1.42;;;;;;;23.79;41.56;99583.59;10327416;28;20058;-59
2021/08/02 13:32:24;;;;;;;2.65;1.60;;;;;;;23.53;42.20;99577.88;10327703;28;20073;-59
2021/08/02 13:37:25;;;;;;;2.92;1.80;;;;;;;23.57;42.20;99573.84;10327212;28;20046;-59
2021/08/02 13:42:27;;;;;;;3.58;1.88;;;;;;;23.57;42.23;99573.84;10326765;28;20108;-59
2021/08/02 13:47:31;;;;;;;3.08;1.80;;;;;;;23.42;42.94;99576.50;10341143;28;20407;-59
2021/08/02 13:52:32;;;;;;;4.05;2.10;;;;;;;23.14;43.57;99580.72;10326412;28;20578;-59
2021/08/02 13:57:35;;;;;;;5.43;2.38;;;;;;;22.65;44.73;99584.75;10352579;28;20442;-59
2021/08/02 14:02:37;;;;;;;4.80;2.25;;;;;;;22.46;45.39;99601.19;10365884;28;20573;-59
2021/08/02 14:07:39;;;;;;;3.95;2.22;;;;;;;22.46;46.37;99601.19;10357492;28;20117;-59
2021/08/02 14:12:47;;;;;;;3.60;2.30;;;;;;;22.22;46.69;99607.47;10365766;28;20046;-59
2021/08/02 14:17:56;;;;;;;2.72;1.90;;;;;;;21.62;47.38;99616.97;10365822;28;20050;-59
2021/08/02 14:22:59;;;;;;;3.83;1.80;;;;;;;21.26;48.65;99616.47;10366035;28;20141;-59
2021/08/02 14:28:05;;;;;;;5.32;1.70;;;;;;;21.07;50.44;99620.31;10365285;28;20077;-59
2021/08/02 14:33:09;;;;;;;2.88;1.70;;;;;;;21.01;50.66;99615.66;10360469;28;20140;-59
2021/08/02 14:38:15;;;;;;;3.50;2.10;;;;;;;20.96;51.44;99620.63;10324549;28;20053;-59
2021/08/02 14:43:20;;;;;;;4.30;1.60;;;;;;;20.66;51.27;99615.94;10323468;28;20125;-59
2021/08/02 14:48:24;;;;;;;5.10;2.20;;;;;;;20.52;52.13;99621.84;10359836;28;20133;-60
2021/08/02 14:53:27;;;;;;;3.38;1.85;;;;;;;20.40;52.94;99625.78;10365228;28;20057;-60
2021/08/02 14:58:30;;;;;;;3.42;1.90;;;;;;;20.42;53.17;99636.28;10364011;28;20050;-59
2021/08/02 15:03:33;;;;;;;2.63;1.80;;;;;;;20.16;54.17;99626.56;10364467;28;20137;-59
2021/08/02 15:08:37;;;;;;;4.28;1.90;;;;;;;19.85;54.65;99629.88;10363027;28;20056;-59
2021/08/02 15:13:39;;;;;;;2.97;1.90;;;;;;;19.71;54.42;99631.25;10337075;28;20086;-59
2021/08/02 15:18:57;;;;;;;4.30;2.10;;;;;;;19.75;56.35;99639.72;10323564;28;20046;-59
2021/08/02 15:24:03;;;;;;;3.22;1.90;;;;;;;19.82;55.96;99622.25;10323484;28;20153;-59
2021/08/02 15:29:06;;;;;;;4.90;2.15;;;;;;;20.00;56.00;99623.00;10322868;28;20054;-59
2021/08/02 15:34:09;;;;;;;4.00;1.88;;;;;;;20.17;55.87;99614.13;10323602;28;20042;-59
2021/08/02 15:39:13;;;;;;;3.85;1.98;;;;;;;20.40;55.32;99606.41;10351732;28;20054;-59
2021/08/02 15:44:24;;;;;;;4.90;2.30;;;;;;;20.85;53.66;99602.34;10362754;28;20124;-59
2021/08/02 15:49:26;;;;;;;3.22;1.92;;;;;;;21.10;52.62;99592.56;10363422;28;20050;-59
2021/08/02 15:54:38;;;;;;;2.95;1.85;;;;;;;21.68;50.94;99595.81;10362816;28;20125;-59
2021/08/02 15:59:55;;;;;;;3.05;1.80;;;;;;;22.00;50.30;99594.06;10363177;28;20053;-59
2021/08/02 16:05:03;;;;;;;2.47;1.60;;;;;;;21.76;51.24;99605.63;10363237;28;20056;-59
2021/08/02 16:10:13;;;;;;;4.00;2.10;;;;;;;21.28;52.49;99606.50;10361434;28;20053;-59
2021/08/02 16:15:16;;;;;;;;;;;;;;;20.76;53.01;99621.13;10363742;28;20072;-59
2021/08/02 16:20:20;;;;;;;3.75;2.17;;;;;;;21.06;52.15;99623.97;10363611;28;20016;-59
2021/08/02 16:25:24;;;;;;;3.83;1.95;;;;;;;20.93;51.54;99636.06;10369724;28;20157;-59
2021/08/02 16:30:26;;;;;;;4.05;2.00;;;;;;;20.58;52.93;99642.47;10368337;28;20481;-59
2021/08/02 16:35:28;;;;;;;3.58;2.00;;;;;;;20.27;54.25;99646.69;10369376;28;20776;-59
2021/08/02 16:40:30;;;;;;;5.07;2.05;;;;;;;20.18;53.95;99663.56;10368482;28;20136;-59
2021/08/02 16:45:31;;;;;;;4.25;1.95;;;;;;;19.64;54.67;99677.16;10369720;28;20141;-58
2021/08/02 16:50:34;;;;;;;3.60;1.90;;;;;;;18.89;55.20;99667.84;10369485;28;20146;-58
2021/08/02 16:55:36;;;;;;;3.78;2.10;;;;;;;18.47;56.24;99679.97;10369165;28;20052;-59
2021/08/02 17:00:37;;;;;;;9.00;2.55;;;;;;;18.23;57.40;99679.69;10368254;28;20052;-59
2021/08/02 17:05:40;;;;;;;5.57;2.00;;;;;;;18.52;58.09;99669.78;10367396;28;20414;-59
2021/08/02 17:10:42;;;;;;;4.38;2.15;;;;;;;18.83;57.89;99673.75;10381595;28;20120;-59
2021/08/02 17:15:44;;;;;;;3.53;2.00;;;;;;;19.20;57.75;99679.78;10372320;28;20081;-59
2021/08/02 17:20:46;;;;;;;4.65;2.50;;;;;;;19.31;58.20;99668.13;10366192;28;20054;-59
2021/08/02 17:25:50;;;;;;;3.65;2.00;;;;;;;19.47;57.72;99681.50;10365969;28;20046;-59
2021/08/02 17:30:54;;;;;;;4.07;2.20;;;;;;;19.30;59.06;99679.69;10370810;28;20165;-59
2021/08/02 17:35:56;;;;;;;6.40;2.25;;;;;;;19.36;59.28;99673.78;10341023;28;20055;-59
2021/08/02 17:40:57;;;;;;;5.85;2.20;;;;;;;19.26;60.04;99675.69;10326022;28;20538;-59
2021/08/02 17:45:59;;;;;;;3.35;2.10;;;;;;;19.17;59.59;99666.84;10329500;28;20610;-59
2021/08/02 17:51:01;;;;;;;4.93;2.53;;;;;;;19.19;60.25;99661.38;10389200;28;20086;-59
2021/08/02 17:56:03;;;;;;;5.07;2.40;;;;;;;19.08;60.82;99666.91;10365770;28;20132;-58
2021/08/02 18:01:05;;;;;;;4.05;2.03;;;;;;;18.98;61.07;99664.31;10364472;28;20049;-59
2021/08/02 18:06:08;;;;;;;2.92;1.80;;;;;;;18.84;60.64;99664.84;10365423;28;20056;-59
2021/08/02 18:11:10;;;;;;;5.60;2.20;;;;;;;18.67;60.66;99670.13;10365274;28;20046;-58
2021/08/02 18:16:12;;;;;;;3.63;2.22;;;;;;;18.60;61.44;99677.81;10390943;28;20133;-59
2021/08/02 18:21:14;;;;;;;4.32;2.30;;;;;;;18.53;61.94;99676.75;10406206;28;20060;-58
2021/08/02 18:26:16;;;;;;;5.22;2.83;;;;;;;18.41;62.41;99672.63;10404077;28;20148;-58
2021/08/02 18:31:17;;;;;;;3.58;2.17;;;;;;;18.28;61.78;99678.25;10368428;28;20131;-59
2021/08/02 18:36:19;;;;;;;4.35;2.67;;;;;;;18.11;62.25;99686.97;10365361;28;20124;-59
2021/08/02 18:41:21;;;;;;;4.45;2.55;;;;;;;17.85;62.05;99696.50;10365302;28;20481;-59
2021/08/02 18:46:23;;;;;;;4.82;2.95;;;;;;;17.62;63.47;99698.66;10364560;28;20049;-59
2021/08/02 18:51:25;;;;;;;4.93;3.20;;;;;;;17.46;63.52;99711.63;10365238;28;20128;-59
2021/08/02 18:56:26;;;;;;;5.50;3.47;;;;;;;17.25;64.09;99710.03;10363772;28;20137;-59
2021/08/02 19:01:28;;;;;;;7.85;3.30;;;;;;;16.99;64.31;99715.03;10378685;28;20052;-59
2021/08/02 19:06:30;;;;;;;4.35;3.08;;;;;;;16.84;64.48;99721.69;10364246;28;20041;-59
2021/08/02 19:11:35;;;;;;;5.13;3.00;;;;;;;16.72;64.42;99726.25;10364347;28;20124;-59
2021/08/02 19:16:39;;;;;;;6.82;3.22;;;;;;;16.67;64.87;99732.91;10363886;28;20045;-59
2021/08/02 19:21:42;;;;;;;10.15;4.18;;;;;;;16.46;64.97;99745.34;10364026;28;20686;-59
2021/08/02 19:26:45;;;;;;;4.47;3.10;;;;;;;16.32;65.37;99740.41;10374589;28;20049;-59
2021/08/02 19:31:49;;;;;;;7.80;3.42;;;;;;;15.97;64.85;99746.88;10367467;28;20483;-59
2021/08/02 19:36:50;;;;;;;6.10;3.55;;;;;;;15.72;65.88;99755.19;10360572;28;20125;-59
2021/08/02 19:41:55;;;;;;;6.32;4.38;;;;;;;15.56;66.47;99760.06;10377850;28;20053;-59
2021/08/02 19:47:01;;;;;;;8.80;3.58;;;;;;;15.51;67.09;99764.88;10361618;28;20410;-59
2021/08/02 19:52:04;;;;;;;5.85;3.45;;;;;;;15.60;66.84;99772.03;10376807;28;20054;-59
2021/08/02 19:57:06;;;;;;;5.10;3.63;;;;;;;15.75;66.16;99780.47;10348562;28;20046;-59
2021/08/02 20:02:08;;;;;;;4.72;3.25;;;;;;;15.82;66.36;99782.44;10330658;28;20073;-58
2021/08/02 20:07:10;;;;;;;7.47;3.60;;;;;;;15.87;65.96;99788.19;10329690;28;20052;-59
2021/08/02 20:12:12;;;;;;;6.50;3.50;;;;;;;15.85;66.00;99787.50;10330016;28;20050;-59
2021/08/02 20:17:16;;;;;;;42.63;5.38;;;;;;;15.82;66.12;99779.81;10329142;28;20129;-60
2021/08/02 20:22:21;;;;;;;4.82;4.15;;;;;;;15.74;65.87;99787.53;10330086;28;20054;-59
2021/08/02 20:27:27;;;;;;;748.20;25.65;;;;;;;15.57;66.44;99779.34;10370896;28;20081;-59
2021/08/02 20:32:32;;;;;;;44.00;5.90;;;;;;;15.46;67.04;99788.13;10370094;28;20131;-59
2021/08/02 20:37:37;;;;;;;5.97;3.72;;;;;;;15.45;67.15;99783.78;10370106;28;20158;-59
2021/08/02 20:42:45;;;;;;;6.05;3.55;;;;;;;15.49;66.46;99779.13;10369501;28;20259;-59
2021/08/02 20:47:48;;;;;;;6.35;3.67;;;;;;;15.49;66.00;99781.75;10369972;28;20133;-59
2021/08/02 20:52:50;;;;;;;4.53;3.30;;;;;;;15.40;66.46;99786.81;10361399;28;20078;-59
2021/08/02 20:57:53;;;;;;;5.03;3.47;;;;;;;15.40;66.56;99791.25;10359372;28;20141;-59
2021/08/02 21:02:59;;;;;;;6.32;4.50;;;;;;;15.37;66.79;99783.59;10368892;28;20481;-59
2021/08/02 21:08:19;;;;;;;7.13;4.10;;;;;;;15.32;66.95;99772.59;10368637;28;20046;-59
2021/08/02 21:13:46;;;;;;;6.45;3.58;;;;;;;15.36;66.31;99771.38;10368174;28;20053;-59
2021/08/02 21:18:56;;;;;;;5.95;3.78;;;;;;;15.41;66.40;99771.81;10350064;28;20056;-58
2021/08/02 21:24:09;;;;;;;8.18;4.22;;;;;;;15.30;66.09;99771.88;10368271;28;20060;-59
2021/08/02 21:29:14;;;;;;;5.97;4.38;;;;;;;15.38;65.77;99774.72;10356175;28;20057;-61
2021/08/02 21:34:15;;;;;;;8.82;5.40;;;;;;;15.36;65.57;99771.38;10344697;28;20573;-60
2021/08/02 21:39:17;;;;;;;7.68;4.53;;;;;;;15.16;66.23;99773.00;10364706;28;20140;-60
2021/08/02 21:44:19;;;;;;;7.88;4.10;;;;;;;15.08;66.47;99769.31;10365333;28;20141;-61
2021/08/02 21:49:21;;;;;;;7.95;4.15;;;;;;;15.00;66.92;99777.00;10362875;28;20137;-61
2021/08/02 21:54:23;;;;;;;5.68;4.00;;;;;;;15.18;67.00;99775.53;10340216;28;20608;-61
2021/08/02 21:59:24;;;;;;;6.68;4.00;;;;;;;15.25;66.52;99768.78;10347422;28;20486;-61
2021/08/02 22:04:26;;;;;;;5.72;4.20;;;;;;;15.21;66.27;99780.53;10362647;28;20146;-61
2021/08/02 22:09:28;;;;;;;6.32;4.00;;;;;;;15.19;66.15;99771.91;10344166;28;20054;-61
2021/08/02 22:14:29;;;;;;;10.15;5.68;;;;;;;15.11;66.20;99776.97;10342700;28;20409;-61
2021/08/02 22:19:31;;;;;;;5.93;4.10;;;;;;;14.94;66.59;99773.03;10357335;28;20049;-61
2021/08/02 22:24:33;;;;;;;6.60;4.50;;;;;;;14.81;67.16;99772.38;10340511;28;20145;-61
2021/08/02 22:29:35;;;;;;;11.38;5.03;;;;;;;14.84;66.77;99772.09;10342285;28;20046;-61
2021/08/02 22:34:37;;;;;;;6.82;3.97;;;;;;;14.89;66.80;99771.75;10349701;28;20128;-61
2021/08/02 22:39:39;;;;;;;9.57;5.72;;;;;;;14.84;66.33;99773.94;10373326;28;20488;-61
2021/08/02 22:44:41;;;;;;;12.55;5.75;;;;;;;14.52;66.85;99766.78;10332030;28;20046;-61
2021/08/02 22:49:49;;;;;;;30.35;9.50;;;;;;;14.26;67.25;99773.19;10334495;28;20073;-61
2021/08/02 22:54:50;;;;;;;11.35;5.30;;;;;;;14.31;67.17;99778.94;10352370;28;20042;-61
2021/08/02 22:59:55;;;;;;;9.90;4.95;;;;;;;14.34;67.25;99770.81;10362720;28;20133;-61
2021/08/02 23:04:57;;;;;;;9.00;6.38;;;;;;;14.37;67.23;99767.91;10349680;28;20120;-61
2021/08/02 23:10:00;;;;;;;7.20;5.38;;;;;;;14.44;67.50;99766.50;10338197;28;20042;-61
2021/08/02 23:15:02;;;;;;;11.50;6.50;;;;;;;14.50;67.40;99762.56;10344077;28;20538;-61
2021/08/02 23:20:05;;;;;;;15.70;7.35;;;;;;;14.51;67.54;99772.97;10332265;28;20133;-61
2021/08/02 23:25:07;;;;;;;8.52;6.40;;;;;;;14.61;67.40;99764.38;10337871;28;20076;-61
2021/08/02 23:30:10;;;;;;;9.32;6.68;;;;;;;14.75;66.83;99766.75;10335122;28;20052;-61